sensor_id;sensor_type;location;lat;lon;timestamp;P1;durP1;ratioP1;P2;durP2;ratioP2
64959;SDS011;51487;52.266;10.542;2022-09-09T00:00:46;4.93;;;2.08;;
64959;SDS011;51487;52.266;10.542;2022-09-09T00:03:22;3.70;;;1.90;;
64959;SDS011;51487;52.266;10.542;2022-09-09T00:05:55;7.50;;;2.33;;
64959;SDS011;51487;52.266;10.542;2022-09-09T00:14:30;4.03;;;2.03;;
64959;SDS011;51487;52.266;10.542;2022-09-09T00:17:48;3.42;;;1.90;;
64959;SDS011;51487;52.266;10.542;2022-09-09T00:20:04;1.88;;;1.70;;
64959;SDS011;51487;52.266;10.542;2022-09-09T00:22:43;2.47;;;1.50;;
64959;SDS011;51487;52.266;10.542;2022-09-09T00:25:24;2.40;;;1.40;;
64959;SDS011;51487;52.266;10.542;2022-09-09T00:28:02;2.08;;;1.40;;
64959;SDS011;51487;52.266;10.542;2022-09-09T00:30:39;6.32;;;1.60;;
64959;SDS011;51487;52.266;10.542;2022-09-09T00:33:10;1.50;;;1.40;;
64959;SDS011;51487;52.266;10.542;2022-09-09T00:35:56;3.92;;;1.60;;
64959;SDS011;51487;52.266;10.542;2022-09-09T00:38:24;3.22;;;1.50;;
64959;SDS011;51487;52.266;10.542;2022-09-09T00:43:36;2.53;;;1.30;;
64959;SDS011;51487;52.266;10.542;2022-09-09T00:59:50;5.03;;;1.20;;
64959;SDS011;51487;52.266;10.542;2022-09-09T01:05:15;6.10;;;1.20;;
64959;SDS011;51487;52.266;10.542;2022-09-09T01:08:15;2.90;;;1.20;;
64959;SDS011;51487;52.266;10.542;2022-09-09T01:10:53;2.50;;;1.20;;
64959;SDS011;51487;52.266;10.542;2022-09-09T01:13:30;4.03;;;1.27;;
64959;SDS011;51487;52.266;10.542;2022-09-09T01:15:59;4.05;;;1.63;;
64959;SDS011;51487;52.266;10.542;2022-09-09T01:18:35;2.28;;;1.20;;
64959;SDS011;51487;52.266;10.542;2022-09-09T01:24:33;4.25;;;1.60;;
64959;SDS011;51487;52.266;10.542;2022-09-09T01:27:06;3.50;;;1.45;;
64959;SDS011;51487;52.266;10.542;2022-09-09T01:29:33;2.67;;;1.50;;
64959;SDS011;51487;52.266;10.542;2022-09-09T01:31:59;4.18;;;2.17;;
64959;SDS011;51487;52.266;10.542;2022-09-09T01:34:47;4.40;;;1.20;;
64959;SDS011;51487;52.266;10.542;2022-09-09T01:37:13;1.30;;;1.20;;
64959;SDS011;51487;52.266;10.542;2022-09-09T01:39:39;2.30;;;1.00;;
64959;SDS011;51487;52.266;10.542;2022-09-09T01:42:09;2.38;;;1.25;;
64959;SDS011;51487;52.266;10.542;2022-09-09T01:44:38;2.10;;;1.33;;
64959;SDS011;51487;52.266;10.542;2022-09-09T01:47:04;2.25;;;1.00;;
64959;SDS011;51487;52.266;10.542;2022-09-09T01:49:31;3.95;;;1.33;;
64959;SDS011;51487;52.266;10.542;2022-09-09T01:51:57;3.38;;;1.50;;
64959;SDS011;51487;52.266;10.542;2022-09-09T01:54:26;3.33;;;1.40;;
64959;SDS011;51487;52.266;10.542;2022-09-09T02:05:26;2.75;;;1.23;;
64959;SDS011;51487;52.266;10.542;2022-09-09T02:08:09;4.65;;;1.75;;
64959;SDS011;51487;52.266;10.542;2022-09-09T02:10:50;1.80;;;1.10;;
64959;SDS011;51487;52.266;10.542;2022-09-09T02:13:38;1.20;;;1.08;;
64959;SDS011;51487;52.266;10.542;2022-09-09T02:16:09;3.17;;;1.20;;
64959;SDS011;51487;52.266;10.542;2022-09-09T02:19:01;3.20;;;1.40;;
64959;SDS011;51487;52.266;10.542;2022-09-09T02:21:38;2.10;;;1.10;;
64959;SDS011;51487;52.266;10.542;2022-09-09T02:24:09;3.38;;;1.40;;
64959;SDS011;51487;52.266;10.542;2022-09-09T02:26:40;2.25;;;1.40;;
64959;SDS011;51487;52.266;10.542;2022-09-09T02:29:16;1.65;;;1.20;;
64959;SDS011;51487;52.266;10.542;2022-09-09T02:32:00;1.38;;;1.20;;
64959;SDS011;51487;52.266;10.542;2022-09-09T02:34:31;2.67;;;1.27;;
64959;SDS011;51487;52.266;10.542;2022-09-09T02:37:01;2.70;;;1.20;;
64959;SDS011;51487;52.266;10.542;2022-09-09T02:39:31;4.28;;;1.73;;
64959;SDS011;51487;52.266;10.542;2022-09-09T02:41:57;3.20;;;1.15;;
64959;SDS011;51487;52.266;10.542;2022-09-09T02:44:22;2.22;;;1.50;;
64959;SDS011;51487;52.266;10.542;2022-09-09T02:52:13;3.60;;;1.25;;
64959;SDS011;51487;52.266;10.542;2022-09-09T02:54:43;1.75;;;1.25;;
64959;SDS011;51487;52.266;10.542;2022-09-09T02:59:47;4.97;;;1.50;;
64959;SDS011;51487;52.266;10.542;2022-09-09T03:02:15;3.83;;;1.33;;
64959;SDS011;51487;52.266;10.542;2022-09-09T03:04:41;3.40;;;1.73;;
64959;SDS011;51487;52.266;10.542;2022-09-09T03:07:09;4.32;;;1.70;;
64959;SDS011;51487;52.266;10.542;2022-09-09T03:09:37;2.88;;;1.50;;
64959;SDS011;51487;52.266;10.542;2022-09-09T03:12:02;2.55;;;1.20;;
64959;SDS011;51487;52.266;10.542;2022-09-09T03:14:29;6.10;;;1.50;;
64959;SDS011;51487;52.266;10.542;2022-09-09T03:16:56;2.75;;;1.60;;
64959;SDS011;51487;52.266;10.542;2022-09-09T03:19:25;2.38;;;1.33;;
64959;SDS011;51487;52.266;10.542;2022-09-09T03:21:51;2.95;;;1.20;;
64959;SDS011;51487;52.266;10.542;2022-09-09T03:24:16;2.33;;;1.30;;
64959;SDS011;51487;52.266;10.542;2022-09-09T03:26:42;3.42;;;1.40;;
64959;SDS011;51487;52.266;10.542;2022-09-09T03:29:11;3.47;;;1.70;;
64959;SDS011;51487;52.266;10.542;2022-09-09T03:31:37;3.95;;;1.58;;
64959;SDS011;51487;52.266;10.542;2022-09-09T03:34:04;4.05;;;1.50;;
64959;SDS011;51487;52.266;10.542;2022-09-09T03:36:30;4.78;;;1.40;;
64959;SDS011;51487;52.266;10.542;2022-09-09T03:38:56;3.80;;;1.58;;
64959;SDS011;51487;52.266;10.542;2022-09-09T03:41:23;4.03;;;1.60;;
64959;SDS011;51487;52.266;10.542;2022-09-09T03:43:50;3.42;;;1.35;;
64959;SDS011;51487;52.266;10.542;2022-09-09T03:46:16;4.25;;;1.50;;
64959;SDS011;51487;52.266;10.542;2022-09-09T03:48:46;3.58;;;1.60;;
64959;SDS011;51487;52.266;10.542;2022-09-09T03:51:12;2.05;;;1.23;;
64959;SDS011;51487;52.266;10.542;2022-09-09T03:53:38;3.55;;;1.40;;
64959;SDS011;51487;52.266;10.542;2022-09-09T03:56:04;3.20;;;1.50;;
64959;SDS011;51487;52.266;10.542;2022-09-09T03:58:32;3.72;;;1.48;;
64959;SDS011;51487;52.266;10.542;2022-09-09T04:01:00;7.20;;;1.75;;
64959;SDS011;51487;52.266;10.542;2022-09-09T04:06:09;3.75;;;1.88;;
64959;SDS011;51487;52.266;10.542;2022-09-09T04:08:37;4.38;;;1.70;;
64959;SDS011;51487;52.266;10.542;2022-09-09T04:11:03;6.53;;;1.98;;
64959;SDS011;51487;52.266;10.542;2022-09-09T04:13:31;5.00;;;1.95;;
64959;SDS011;51487;52.266;10.542;2022-09-09T04:15:59;4.30;;;1.85;;
64959;SDS011;51487;52.266;10.542;2022-09-09T04:18:26;5.63;;;1.67;;
64959;SDS011;51487;52.266;10.542;2022-09-09T04:20:56;5.82;;;1.88;;
64959;SDS011;51487;52.266;10.542;2022-09-09T04:23:22;3.63;;;1.60;;
64959;SDS011;51487;52.266;10.542;2022-09-09T04:25:52;5.82;;;1.60;;
64959;SDS011;51487;52.266;10.542;2022-09-09T04:28:20;3.97;;;1.70;;
64959;SDS011;51487;52.266;10.542;2022-09-09T04:30:49;7.78;;;2.13;;
64959;SDS011;51487;52.266;10.542;2022-09-09T04:33:14;3.25;;;1.42;;
64959;SDS011;51487;52.266;10.542;2022-09-09T04:35:45;4.43;;;1.77;;
64959;SDS011;51487;52.266;10.542;2022-09-09T04:38:13;5.53;;;1.98;;
64959;SDS011;51487;52.266;10.542;2022-09-09T04:40:46;3.97;;;2.10;;
64959;SDS011;51487;52.266;10.542;2022-09-09T04:43:12;3.97;;;2.00;;
64959;SDS011;51487;52.266;10.542;2022-09-09T04:45:39;3.22;;;2.05;;
64959;SDS011;51487;52.266;10.542;2022-09-09T04:48:06;3.80;;;1.90;;
64959;SDS011;51487;52.266;10.542;2022-09-09T04:50:32;3.38;;;1.80;;
64959;SDS011;51487;52.266;10.542;2022-09-09T04:53:02;4.30;;;1.90;;
64959;SDS011;51487;52.266;10.542;2022-09-09T04:55:30;5.75;;;1.60;;
64959;SDS011;51487;52.266;10.542;2022-09-09T04:57:56;8.57;;;2.10;;
64959;SDS011;51487;52.266;10.542;2022-09-09T05:00:25;3.53;;;1.60;;
64959;SDS011;51487;52.266;10.542;2022-09-09T05:02:50;3.25;;;1.88;;
64959;SDS011;51487;52.266;10.542;2022-09-09T05:05:16;4.30;;;1.67;;
64959;SDS011;51487;52.266;10.542;2022-09-09T05:07:41;5.63;;;1.70;;
64959;SDS011;51487;52.266;10.542;2022-09-09T05:10:08;6.30;;;1.90;;
64959;SDS011;51487;52.266;10.542;2022-09-09T05:12:35;3.92;;;1.77;;
64959;SDS011;51487;52.266;10.542;2022-09-09T05:15:01;4.65;;;1.90;;
64959;SDS011;51487;52.266;10.542;2022-09-09T05:17:26;6.72;;;1.63;;
64959;SDS011;51487;52.266;10.542;2022-09-09T05:19:52;4.03;;;1.67;;
64959;SDS011;51487;52.266;10.542;2022-09-09T05:22:21;3.53;;;1.50;;
64959;SDS011;51487;52.266;10.542;2022-09-09T05:24:48;3.55;;;1.85;;
64959;SDS011;51487;52.266;10.542;2022-09-09T05:27:16;4.03;;;2.03;;
64959;SDS011;51487;52.266;10.542;2022-09-09T05:29:44;5.20;;;1.50;;
64959;SDS011;51487;52.266;10.542;2022-09-09T05:32:11;4.18;;;1.65;;
64959;SDS011;51487;52.266;10.542;2022-09-09T05:34:38;3.70;;;1.50;;
64959;SDS011;51487;52.266;10.542;2022-09-09T05:37:04;5.55;;;1.70;;
64959;SDS011;51487;52.266;10.542;2022-09-09T05:39:31;4.57;;;1.55;;
64959;SDS011;51487;52.266;10.542;2022-09-09T05:41:57;2.78;;;1.45;;
64959;SDS011;51487;52.266;10.542;2022-09-09T05:44:23;5.25;;;1.60;;
64959;SDS011;51487;52.266;10.542;2022-09-09T05:46:52;5.55;;;1.70;;
64959;SDS011;51487;52.266;10.542;2022-09-09T05:49:19;6.50;;;1.55;;
64959;SDS011;51487;52.266;10.542;2022-09-09T05:51:45;4.30;;;1.60;;
64959;SDS011;51487;52.266;10.542;2022-09-09T05:54:12;6.00;;;2.13;;
64959;SDS011;51487;52.266;10.542;2022-09-09T05:56:40;3.97;;;1.80;;
64959;SDS011;51487;52.266;10.542;2022-09-09T05:59:06;5.90;;;2.05;;
64959;SDS011;51487;52.266;10.542;2022-09-09T06:01:33;6.50;;;1.58;;
64959;SDS011;51487;52.266;10.542;2022-09-09T06:04:01;3.58;;;1.70;;
64959;SDS011;51487;52.266;10.542;2022-09-09T06:06:30;4.72;;;1.67;;
64959;SDS011;51487;52.266;10.542;2022-09-09T06:09:02;5.85;;;1.60;;
64959;SDS011;51487;52.266;10.542;2022-09-09T06:11:31;4.15;;;1.40;;
64959;SDS011;51487;52.266;10.542;2022-09-09T06:13:58;3.90;;;1.80;;
64959;SDS011;51487;52.266;10.542;2022-09-09T06:16:25;6.07;;;1.50;;
64959;SDS011;51487;52.266;10.542;2022-09-09T06:18:53;6.70;;;1.80;;
64959;SDS011;51487;52.266;10.542;2022-09-09T06:21:24;6.65;;;1.60;;
64959;SDS011;51487;52.266;10.542;2022-09-09T06:23:52;7.40;;;1.58;;
64959;SDS011;51487;52.266;10.542;2022-09-09T06:26:19;4.72;;;1.50;;
64959;SDS011;51487;52.266;10.542;2022-09-09T06:28:51;3.38;;;1.33;;
64959;SDS011;51487;52.266;10.542;2022-09-09T06:31:20;2.80;;;1.50;;
64959;SDS011;51487;52.266;10.542;2022-09-09T06:33:48;5.40;;;1.48;;
64959;SDS011;51487;52.266;10.542;2022-09-09T06:36:17;4.45;;;1.52;;
64959;SDS011;51487;52.266;10.542;2022-09-09T06:38:46;4.95;;;1.70;;
64959;SDS011;51487;52.266;10.542;2022-09-09T06:41:13;5.07;;;1.50;;
64959;SDS011;51487;52.266;10.542;2022-09-09T06:43:41;7.13;;;1.90;;
64959;SDS011;51487;52.266;10.542;2022-09-09T06:46:14;7.80;;;1.88;;
64959;SDS011;51487;52.266;10.542;2022-09-09T06:48:46;2.67;;;1.40;;
64959;SDS011;51487;52.266;10.542;2022-09-09T06:51:19;4.35;;;1.80;;
64959;SDS011;51487;52.266;10.542;2022-09-09T06:53:49;5.80;;;1.80;;
64959;SDS011;51487;52.266;10.542;2022-09-09T06:58:46;5.38;;;1.60;;
64959;SDS011;51487;52.266;10.542;2022-09-09T07:01:14;6.00;;;1.80;;
64959;SDS011;51487;52.266;10.542;2022-09-09T07:03:45;4.10;;;1.92;;
64959;SDS011;51487;52.266;10.542;2022-09-09T07:06:16;6.55;;;2.38;;
64959;SDS011;51487;52.266;10.542;2022-09-09T07:08:59;5.80;;;2.60;;
64959;SDS011;51487;52.266;10.542;2022-09-09T07:11:30;4.28;;;2.22;;
64959;SDS011;51487;52.266;10.542;2022-09-09T07:14:07;4.22;;;1.80;;
64959;SDS011;51487;52.266;10.542;2022-09-09T07:16:34;6.57;;;1.70;;
64959;SDS011;51487;52.266;10.542;2022-09-09T07:19:02;2.08;;;1.45;;
64959;SDS011;51487;52.266;10.542;2022-09-09T07:21:29;3.78;;;1.90;;
64959;SDS011;51487;52.266;10.542;2022-09-09T07:23:57;3.63;;;1.50;;
64959;SDS011;51487;52.266;10.542;2022-09-09T07:26:24;4.80;;;1.65;;
64959;SDS011;51487;52.266;10.542;2022-09-09T07:28:53;6.45;;;1.98;;
64959;SDS011;51487;52.266;10.542;2022-09-09T07:31:22;4.88;;;1.70;;
64959;SDS011;51487;52.266;10.542;2022-09-09T07:33:52;2.22;;;1.33;;
64959;SDS011;51487;52.266;10.542;2022-09-09T07:38:53;1.55;;;1.10;;
64959;SDS011;51487;52.266;10.542;2022-09-09T07:41:29;4.10;;;1.27;;
64959;SDS011;51487;52.266;10.542;2022-09-09T07:44:14;4.25;;;1.42;;
64959;SDS011;51487;52.266;10.542;2022-09-09T07:46:43;4.70;;;1.48;;
64959;SDS011;51487;52.266;10.542;2022-09-09T07:49:10;4.13;;;1.50;;
64959;SDS011;51487;52.266;10.542;2022-09-09T07:51:38;4.50;;;1.50;;
64959;SDS011;51487;52.266;10.542;2022-09-09T07:54:10;5.82;;;1.55;;
64959;SDS011;51487;52.266;10.542;2022-09-09T07:56:39;4.25;;;1.30;;
64959;SDS011;51487;52.266;10.542;2022-09-09T07:59:05;4.80;;;2.08;;
64959;SDS011;51487;52.266;10.542;2022-09-09T08:01:32;2.55;;;1.33;;
64959;SDS011;51487;52.266;10.542;2022-09-09T08:04:06;4.30;;;1.60;;
64959;SDS011;51487;52.266;10.542;2022-09-09T08:06:35;3.80;;;1.58;;
64959;SDS011;51487;52.266;10.542;2022-09-09T08:09:04;4.53;;;1.83;;
64959;SDS011;51487;52.266;10.542;2022-09-09T08:11:32;8.02;;;1.40;;
64959;SDS011;51487;52.266;10.542;2022-09-09T08:13:59;6.78;;;2.05;;
64959;SDS011;51487;52.266;10.542;2022-09-09T08:16:26;4.47;;;1.67;;
64959;SDS011;51487;52.266;10.542;2022-09-09T08:18:55;6.55;;;1.80;;
64959;SDS011;51487;52.266;10.542;2022-09-09T08:21:24;4.40;;;1.45;;
64959;SDS011;51487;52.266;10.542;2022-09-09T08:23:53;7.78;;;1.52;;
64959;SDS011;51487;52.266;10.542;2022-09-09T08:26:25;4.45;;;1.60;;
64959;SDS011;51487;52.266;10.542;2022-09-09T08:29:00;4.05;;;1.40;;
64959;SDS011;51487;52.266;10.542;2022-09-09T08:31:29;2.55;;;1.20;;
64959;SDS011;51487;52.266;10.542;2022-09-09T08:33:58;4.45;;;1.45;;
64959;SDS011;51487;52.266;10.542;2022-09-09T08:36:25;5.93;;;1.40;;
64959;SDS011;51487;52.266;10.542;2022-09-09T08:38:54;4.97;;;1.35;;
64959;SDS011;51487;52.266;10.542;2022-09-09T08:53:16;4.95;;;1.60;;
64959;SDS011;51487;52.266;10.542;2022-09-09T08:55:51;3.03;;;1.30;;
64959;SDS011;51487;52.266;10.542;2022-09-09T08:58:24;5.10;;;1.45;;
64959;SDS011;51487;52.266;10.542;2022-09-09T09:11:35;6.53;;;1.38;;
64959;SDS011;51487;52.266;10.542;2022-09-09T09:14:09;5.53;;;1.33;;
64959;SDS011;51487;52.266;10.542;2022-09-09T09:16:58;5.57;;;1.38;;
64959;SDS011;51487;52.266;10.542;2022-09-09T09:19:28;5.07;;;1.48;;
64959;SDS011;51487;52.266;10.542;2022-09-09T09:24:53;5.05;;;1.50;;
64959;SDS011;51487;52.266;10.542;2022-09-09T09:27:44;4.75;;;1.50;;
64959;SDS011;51487;52.266;10.542;2022-09-09T09:30:54;4.78;;;2.15;;
64959;SDS011;51487;52.266;10.542;2022-09-09T09:36:15;5.88;;;1.83;;
64959;SDS011;51487;52.266;10.542;2022-09-09T09:39:00;5.55;;;1.88;;
64959;SDS011;51487;52.266;10.542;2022-09-09T09:41:30;4.63;;;1.92;;
64959;SDS011;51487;52.266;10.542;2022-09-09T09:44:18;4.13;;;1.70;;
64959;SDS011;51487;52.266;10.542;2022-09-09T09:46:51;5.63;;;1.70;;
64959;SDS011;51487;52.266;10.542;2022-09-09T09:49:17;3.45;;;1.48;;
64959;SDS011;51487;52.266;10.542;2022-09-09T09:51:43;3.97;;;1.38;;
64959;SDS011;51487;52.266;10.542;2022-09-09T09:56:44;4.65;;;1.50;;
64959;SDS011;51487;52.266;10.542;2022-09-09T10:04:42;3.45;;;1.50;;
64959;SDS011;51487;52.266;10.542;2022-09-09T10:07:11;6.70;;;1.65;;
64959;SDS011;51487;52.266;10.542;2022-09-09T10:09:54;5.95;;;1.90;;
64959;SDS011;51487;52.266;10.542;2022-09-09T10:26:16;5.70;;;2.08;;
64959;SDS011;51487;52.266;10.542;2022-09-09T10:35:24;4.55;;;1.50;;
64959;SDS011;51487;52.266;10.542;2022-09-09T10:38:17;7.93;;;3.72;;
64959;SDS011;51487;52.266;10.542;2022-09-09T10:52:16;4.63;;;1.55;;
64959;SDS011;51487;52.266;10.542;2022-09-09T10:55:17;4.63;;;1.60;;
64959;SDS011;51487;52.266;10.542;2022-09-09T10:57:46;3.92;;;1.60;;
64959;SDS011;51487;52.266;10.542;2022-09-09T11:00:24;5.10;;;1.83;;
64959;SDS011;51487;52.266;10.542;2022-09-09T11:03:06;5.75;;;1.70;;
64959;SDS011;51487;52.266;10.542;2022-09-09T11:05:49;8.02;;;1.48;;
64959;SDS011;51487;52.266;10.542;2022-09-09T11:08:26;4.22;;;1.40;;
64959;SDS011;51487;52.266;10.542;2022-09-09T11:13:26;6.18;;;2.70;;
64959;SDS011;51487;52.266;10.542;2022-09-09T11:19:45;6.70;;;2.40;;
64959;SDS011;51487;52.266;10.542;2022-09-09T11:22:08;6.85;;;2.22;;
64959;SDS011;51487;52.266;10.542;2022-09-09T11:25:08;4.25;;;1.50;;
64959;SDS011;51487;52.266;10.542;2022-09-09T11:30:40;5.65;;;1.58;;
64959;SDS011;51487;52.266;10.542;2022-09-09T11:42:29;4.25;;;1.70;;
64959;SDS011;51487;52.266;10.542;2022-09-09T11:44:55;6.55;;;1.55;;
64959;SDS011;51487;52.266;10.542;2022-09-09T11:47:30;3.67;;;1.23;;
64959;SDS011;51487;52.266;10.542;2022-09-09T11:52:41;4.72;;;1.20;;
64959;SDS011;51487;52.266;10.542;2022-09-09T11:57:45;5.32;;;1.38;;
64959;SDS011;51487;52.266;10.542;2022-09-09T12:02:58;3.17;;;1.27;;
64959;SDS011;51487;52.266;10.542;2022-09-09T12:05:24;4.72;;;1.25;;
64959;SDS011;51487;52.266;10.542;2022-09-09T12:08:05;3.47;;;1.27;;
64959;SDS011;51487;52.266;10.542;2022-09-09T12:10:38;4.15;;;1.50;;
64959;SDS011;51487;52.266;10.542;2022-09-09T12:13:18;3.42;;;1.27;;
64959;SDS011;51487;52.266;10.542;2022-09-09T12:15:50;2.28;;;1.17;;
64959;SDS011;51487;52.266;10.542;2022-09-09T12:18:46;4.07;;;1.10;;
64959;SDS011;51487;52.266;10.542;2022-09-09T12:21:14;7.93;;;1.50;;
64959;SDS011;51487;52.266;10.542;2022-09-09T12:24:07;5.50;;;1.30;;
64959;SDS011;51487;52.266;10.542;2022-09-09T12:26:38;3.38;;;1.27;;
64959;SDS011;51487;52.266;10.542;2022-09-09T12:29:18;2.45;;;1.20;;
64959;SDS011;51487;52.266;10.542;2022-09-09T12:34:38;3.40;;;1.38;;
64959;SDS011;51487;52.266;10.542;2022-09-09T12:40:04;3.00;;;1.27;;
64959;SDS011;51487;52.266;10.542;2022-09-09T12:42:53;4.45;;;1.40;;
64959;SDS011;51487;52.266;10.542;2022-09-09T12:45:22;2.97;;;1.30;;
64959;SDS011;51487;52.266;10.542;2022-09-09T12:47:54;4.00;;;1.30;;
64959;SDS011;51487;52.266;10.542;2022-09-09T12:50:30;4.57;;;1.40;;
64959;SDS011;51487;52.266;10.542;2022-09-09T12:53:10;5.55;;;1.30;;
64959;SDS011;51487;52.266;10.542;2022-09-09T12:55:50;3.35;;;1.30;;
64959;SDS011;51487;52.266;10.542;2022-09-09T12:58:20;5.50;;;1.50;;
64959;SDS011;51487;52.266;10.542;2022-09-09T13:00:52;2.70;;;1.10;;
64959;SDS011;51487;52.266;10.542;2022-09-09T13:03:22;3.28;;;1.20;;
64959;SDS011;51487;52.266;10.542;2022-09-09T13:05:50;4.53;;;1.20;;
64959;SDS011;51487;52.266;10.542;2022-09-09T13:08:18;3.95;;;1.30;;
64959;SDS011;51487;52.266;10.542;2022-09-09T13:10:51;5.03;;;1.52;;
64959;SDS011;51487;52.266;10.542;2022-09-09T13:13:38;2.60;;;1.20;;
64959;SDS011;51487;52.266;10.542;2022-09-09T13:16:17;9.02;;;1.40;;
64959;SDS011;51487;52.266;10.542;2022-09-09T13:19:05;2.97;;;1.40;;
64959;SDS011;51487;52.266;10.542;2022-09-09T13:21:35;4.45;;;1.30;;
64959;SDS011;51487;52.266;10.542;2022-09-09T13:24:04;4.28;;;1.20;;
64959;SDS011;51487;52.266;10.542;2022-09-09T13:26:53;3.17;;;1.33;;
64959;SDS011;51487;52.266;10.542;2022-09-09T13:29:25;1.90;;;1.00;;
64959;SDS011;51487;52.266;10.542;2022-09-09T13:31:53;3.10;;;1.23;;
64959;SDS011;51487;52.266;10.542;2022-09-09T13:34:32;2.38;;;0.98;;
64959;SDS011;51487;52.266;10.542;2022-09-09T13:37:03;3.83;;;1.20;;
64959;SDS011;51487;52.266;10.542;2022-09-09T13:39:35;2.85;;;1.38;;
64959;SDS011;51487;52.266;10.542;2022-09-09T13:42:02;3.15;;;1.25;;
64959;SDS011;51487;52.266;10.542;2022-09-09T13:44:38;3.85;;;1.20;;
64959;SDS011;51487;52.266;10.542;2022-09-09T13:49:45;3.20;;;1.40;;
64959;SDS011;51487;52.266;10.542;2022-09-09T13:54:39;5.80;;;1.80;;
64959;SDS011;51487;52.266;10.542;2022-09-09T13:57:12;3.67;;;1.42;;
64959;SDS011;51487;52.266;10.542;2022-09-09T13:59:43;3.50;;;1.35;;
64959;SDS011;51487;52.266;10.542;2022-09-09T14:02:09;2.60;;;0.98;;
64959;SDS011;51487;52.266;10.542;2022-09-09T14:04:35;2.55;;;1.10;;
64959;SDS011;51487;52.266;10.542;2022-09-09T14:07:01;3.15;;;1.20;;
64959;SDS011;51487;52.266;10.542;2022-09-09T14:09:28;4.38;;;1.27;;
64959;SDS011;51487;52.266;10.542;2022-09-09T14:11:53;3.35;;;1.00;;
64959;SDS011;51487;52.266;10.542;2022-09-09T14:14:20;2.40;;;1.00;;
64959;SDS011;51487;52.266;10.542;2022-09-09T14:16:46;5.43;;;1.25;;
64959;SDS011;51487;52.266;10.542;2022-09-09T14:19:12;5.25;;;1.08;;
64959;SDS011;51487;52.266;10.542;2022-09-09T14:21:37;3.80;;;0.82;;
64959;SDS011;51487;52.266;10.542;2022-09-09T14:24:03;2.08;;;1.33;;
64959;SDS011;51487;52.266;10.542;2022-09-09T14:26:29;2.95;;;1.10;;
64959;SDS011;51487;52.266;10.542;2022-09-09T14:28:55;4.15;;;0.98;;
64959;SDS011;51487;52.266;10.542;2022-09-09T14:31:24;6.00;;;1.20;;
64959;SDS011;51487;52.266;10.542;2022-09-09T14:33:50;3.55;;;1.00;;
64959;SDS011;51487;52.266;10.542;2022-09-09T14:36:16;3.53;;;0.90;;
64959;SDS011;51487;52.266;10.542;2022-09-09T14:38:42;4.47;;;1.50;;
64959;SDS011;51487;52.266;10.542;2022-09-09T14:41:11;3.40;;;1.15;;
64959;SDS011;51487;52.266;10.542;2022-09-09T14:43:43;1.60;;;1.08;;
64959;SDS011;51487;52.266;10.542;2022-09-09T14:46:11;5.13;;;1.20;;
64959;SDS011;51487;52.266;10.542;2022-09-09T14:48:40;3.03;;;1.13;;
64959;SDS011;51487;52.266;10.542;2022-09-09T14:51:10;4.65;;;1.20;;
64959;SDS011;51487;52.266;10.542;2022-09-09T14:53:44;3.47;;;1.30;;
64959;SDS011;51487;52.266;10.542;2022-09-09T14:58:46;4.00;;;1.10;;
64959;SDS011;51487;52.266;10.542;2022-09-09T15:01:12;4.22;;;1.10;;
64959;SDS011;51487;52.266;10.542;2022-09-09T15:03:48;4.15;;;1.50;;
64959;SDS011;51487;52.266;10.542;2022-09-09T15:06:16;3.35;;;1.25;;
64959;SDS011;51487;52.266;10.542;2022-09-09T15:08:42;2.72;;;1.10;;
64959;SDS011;51487;52.266;10.542;2022-09-09T15:11:10;3.20;;;1.20;;
64959;SDS011;51487;52.266;10.542;2022-09-09T15:13:38;2.88;;;1.20;;
64959;SDS011;51487;52.266;10.542;2022-09-09T15:16:10;3.78;;;1.48;;
64959;SDS011;51487;52.266;10.542;2022-09-09T15:18:39;4.50;;;1.30;;
64959;SDS011;51487;52.266;10.542;2022-09-09T15:21:11;2.20;;;1.00;;
64959;SDS011;51487;52.266;10.542;2022-09-09T15:23:44;5.50;;;1.80;;
64959;SDS011;51487;52.266;10.542;2022-09-09T15:26:10;5.72;;;1.23;;
64959;SDS011;51487;52.266;10.542;2022-09-09T15:28:39;3.45;;;1.38;;
64959;SDS011;51487;52.266;10.542;2022-09-09T15:31:15;3.88;;;1.40;;
64959;SDS011;51487;52.266;10.542;2022-09-09T15:33:49;2.40;;;1.13;;
64959;SDS011;51487;52.266;10.542;2022-09-09T15:36:19;3.47;;;1.23;;
64959;SDS011;51487;52.266;10.542;2022-09-09T15:38:49;4.95;;;1.70;;
64959;SDS011;51487;52.266;10.542;2022-09-09T15:41:17;2.92;;;1.30;;
64959;SDS011;51487;52.266;10.542;2022-09-09T15:43:45;3.38;;;1.02;;
64959;SDS011;51487;52.266;10.542;2022-09-09T15:48:49;3.05;;;1.20;;
64959;SDS011;51487;52.266;10.542;2022-09-09T15:51:15;2.70;;;1.40;;
64959;SDS011;51487;52.266;10.542;2022-09-09T15:53:41;1.58;;;1.00;;
64959;SDS011;51487;52.266;10.542;2022-09-09T15:56:07;2.38;;;1.20;;
64959;SDS011;51487;52.266;10.542;2022-09-09T15:58:34;14.43;;;4.30;;
64959;SDS011;51487;52.266;10.542;2022-09-09T16:01:01;80.85;;;16.23;;
64959;SDS011;51487;52.266;10.542;2022-09-09T16:03:35;81.75;;;17.40;;
64959;SDS011;51487;52.266;10.542;2022-09-09T16:06:03;74.10;;;14.30;;
64959;SDS011;51487;52.266;10.542;2022-09-09T16:11:05;41.20;;;6.93;;
64959;SDS011;51487;52.266;10.542;2022-09-09T16:13:35;16.83;;;4.30;;
64959;SDS011;51487;52.266;10.542;2022-09-09T16:16:02;9.45;;;2.70;;
64959;SDS011;51487;52.266;10.542;2022-09-09T16:18:35;39.53;;;8.05;;
64959;SDS011;51487;52.266;10.542;2022-09-09T16:21:03;7.67;;;2.23;;
64959;SDS011;51487;52.266;10.542;2022-09-09T16:23:33;26.35;;;5.97;;
64959;SDS011;51487;52.266;10.542;2022-09-09T16:26:00;19.50;;;5.80;;
64959;SDS011;51487;52.266;10.542;2022-09-09T16:28:26;17.65;;;5.55;;
64959;SDS011;51487;52.266;10.542;2022-09-09T16:30:52;21.98;;;4.70;;
64959;SDS011;51487;52.266;10.542;2022-09-09T16:33:18;21.73;;;5.50;;
64959;SDS011;51487;52.266;10.542;2022-09-09T16:35:44;20.27;;;4.80;;
64959;SDS011;51487;52.266;10.542;2022-09-09T16:38:09;23.52;;;6.10;;
64959;SDS011;51487;52.266;10.542;2022-09-09T16:40:36;20.00;;;5.28;;
64959;SDS011;51487;52.266;10.542;2022-09-09T16:43:03;21.15;;;5.65;;
64959;SDS011;51487;52.266;10.542;2022-09-09T16:45:30;14.43;;;4.18;;
64959;SDS011;51487;52.266;10.542;2022-09-09T16:47:57;19.00;;;4.07;;
64959;SDS011;51487;52.266;10.542;2022-09-09T16:50:23;12.68;;;3.88;;
64959;SDS011;51487;52.266;10.542;2022-09-09T16:52:50;16.05;;;4.10;;
64959;SDS011;51487;52.266;10.542;2022-09-09T16:55:17;18.95;;;3.28;;
64959;SDS011;51487;52.266;10.542;2022-09-09T16:57:45;15.95;;;3.58;;
64959;SDS011;51487;52.266;10.542;2022-09-09T17:00:13;21.52;;;3.78;;
64959;SDS011;51487;52.266;10.542;2022-09-09T17:02:41;15.98;;;2.85;;
64959;SDS011;51487;52.266;10.542;2022-09-09T17:05:08;24.67;;;4.40;;
64959;SDS011;51487;52.266;10.542;2022-09-09T17:07:34;8.27;;;2.25;;
64959;SDS011;51487;52.266;10.542;2022-09-09T17:10:00;13.65;;;3.80;;
64959;SDS011;51487;52.266;10.542;2022-09-09T17:12:26;13.32;;;2.80;;
64959;SDS011;51487;52.266;10.542;2022-09-09T17:14:52;11.52;;;2.88;;
64959;SDS011;51487;52.266;10.542;2022-09-09T17:17:18;12.13;;;3.00;;
64959;SDS011;51487;52.266;10.542;2022-09-09T17:19:43;17.63;;;4.13;;
64959;SDS011;51487;52.266;10.542;2022-09-09T17:22:09;13.65;;;3.65;;
64959;SDS011;51487;52.266;10.542;2022-09-09T17:24:34;19.73;;;3.72;;
64959;SDS011;51487;52.266;10.542;2022-09-09T17:27:03;15.40;;;3.15;;
64959;SDS011;51487;52.266;10.542;2022-09-09T17:29:29;13.10;;;3.90;;
64959;SDS011;51487;52.266;10.542;2022-09-09T17:31:55;10.10;;;3.17;;
64959;SDS011;51487;52.266;10.542;2022-09-09T17:34:21;9.15;;;3.13;;
64959;SDS011;51487;52.266;10.542;2022-09-09T17:36:47;11.48;;;3.03;;
64959;SDS011;51487;52.266;10.542;2022-09-09T17:39:13;12.35;;;2.78;;